Time;durP1;ratioP1;P1;durP2;ratioP2;P2;SDS_P1;SDS_P2;PMS_P1;PMS_P2;Temp;Humidity;BMP_temperature;BMP_pressure;BME280_temperature;BME280_humidity;BME280_pressure;Samples;Min_cycle;Max_cycle;Signal;HPM_P1;HPM_P2
2021/06/08 07:32:21;;;;;;;;;;;14.90;99.90;;;;;;5468638;22;15746529;-83
2021/06/08 07:34:49;;;;;;;;;;;14.90;99.90;;;;;;6190222;23;19970;-83
2021/06/08 07:37:18;;;;;;;;;;;14.90;99.90;;;;;;6161604;23;20835;-83
2021/06/08 07:39:49;;;;;;;;;;;14.90;99.90;;;;;;6181908;23;19967;-82
2021/06/08 07:42:18;;;;;;;;;;;15.00;99.90;;;;;;6158015;23;19924;-83
2021/06/08 07:44:47;;;;;;;;;;;15.10;99.90;;;;;;6155997;23;19928;-83
2021/06/08 07:47:16;;;;;;;;;;;15.20;99.90;;;;;;6156298;23;19921;-83
2021/06/08 07:49:44;;;;;;;;;;;15.30;99.90;;;;;;6158769;23;19920;-83
2021/06/08 07:52:13;;;;;;;;;;;15.30;99.90;;;;;;6157878;23;20383;-83
2021/06/08 07:54:41;;;;;;;;;;;15.40;99.90;;;;;;6183149;23;20422;-83
2021/06/08 07:57:08;;;;;;;;;;;15.40;99.90;;;;;;6157936;23;19920;-83
2021/06/08 07:59:35;;;;;;;;;;;15.40;99.90;;;;;;6158266;23;20453;-84
2021/06/08 08:02:02;;;;;;;;;;;15.40;99.90;;;;;;6182890;23;19955;-83
2021/06/08 08:04:36;;;;;;;;;;;15.50;99.90;;;;;;6182206;23;19920;-83
2021/06/08 08:07:03;;;;;;;;;;;15.60;99.90;;;;;;6157792;23;19920;-83
2021/06/08 08:09:30;;;;;;;;;;;15.60;99.90;;;;;;6179773;23;20451;-84
2021/06/08 08:11:57;;;;;;;;;;;15.70;99.90;;;;;;6121712;23;19925;-83
2021/06/08 08:14:25;;;;;;;;;;;15.80;99.90;;;;;;6121490;23;19929;-83
2021/06/08 08:16:54;;;;;;;;;;;15.80;99.90;;;;;;6121578;23;20340;-84
2021/06/08 08:19:21;;;;;;;;;;;16.00;99.90;;;;;;6119434;23;19921;-84
2021/06/08 08:21:48;;;;;;;;;;;16.10;99.90;;;;;;6119302;23;19921;-85
2021/06/08 08:24:15;;;;;;;;;;;16.20;99.90;;;;;;6121379;23;19971;-84
2021/06/08 08:26:42;;;;;;;;;;;16.40;99.90;;;;;;6120440;23;20670;-84
2021/06/08 08:29:12;;;;;;;;;;;16.40;99.90;;;;;;6120346;23;19921;-85
2021/06/08 08:31:38;;;;;;;;;;;16.40;99.90;;;;;;6106451;23;19921;-85
2021/06/08 08:34:05;;;;;;;;;;;16.50;99.90;;;;;;6087638;23;19971;-87
2021/06/08 08:36:35;;;;;;;;;;;16.70;99.90;;;;;;6089076;23;19921;-87
2021/06/08 08:39:02;;;;;;;;;;;16.90;99.90;;;;;;6090738;23;19967;-85
2021/06/08 08:41:29;;;;;;;;;;;17.10;99.90;;;;;;6089806;23;19921;-86
2021/06/08 08:43:56;;;;;;;;;;;17.20;99.90;;;;;;6089457;23;19921;-85
2021/06/08 08:46:24;;;;;;;;;;;17.30;99.90;;;;;;6090357;23;20345;-85
2021/06/08 08:48:54;;;;;;;;;;;17.30;99.90;;;;;;6089825;23;19921;-91
2021/06/08 08:51:25;;;;;;;;;;;17.50;99.90;;;;;;6090010;23;20386;-86
2021/06/08 08:53:55;;;;;;;;;;;17.60;99.90;;;;;;6089390;23;19975;-87
2021/06/08 08:56:26;;;;;;;;;;;17.60;99.90;;;;;;6088505;23;19927;-86
2021/06/08 08:58:54;;;;;;;;;;;17.70;99.90;;;;;;6088879;23;19983;-86
2021/06/08 09:01:21;;;;;;;;;;;17.80;99.90;;;;;;6088427;23;19975;-86
2021/06/08 09:03:48;;;;;;;;;;;17.90;99.90;;;;;;6090965;23;20009;-86
2021/06/08 09:06:16;;;;;;;;;;;18.10;99.90;;;;;;6089977;23;19929;-86
2021/06/08 09:08:43;;;;;;;;;;;18.30;99.90;;;;;;6091110;23;20378;-85
2021/06/08 09:11:11;;;;;;;;;;;18.30;99.90;;;;;;6092114;23;19925;-85
2021/06/08 09:13:39;;;;;;;;;;;18.50;99.90;;;;;;6092568;23;20296;-86
2021/06/08 09:16:07;;;;;;;;;;;18.60;99.90;;;;;;6092225;23;20402;-87
2021/06/08 09:18:34;;;;;;;;;;;18.80;99.90;;;;;;6092332;23;19922;-86
2021/06/08 09:21:32;;;;;;;;;;;18.80;99.90;;;;;;6092689;23;19921;-85
2021/06/08 09:24:14;;;;;;;;;;;18.80;99.90;;;;;;6073731;23;19929;-85
2021/06/08 09:26:50;;;;;;;;;;;18.80;99.90;;;;;;6090834;23;19925;-86
2021/06/08 09:29:27;;;;;;;;;;;18.70;99.90;;;;;;6088916;23;19922;-88
2021/06/08 09:32:13;;;;;;;;;;;18.70;99.90;;;;;;6089154;23;19922;-86
2021/06/08 09:34:50;;;;;;;;;;;18.70;99.90;;;;;;6090328;23;19929;-86
2021/06/08 09:37:37;;;;;;;;;;;19.00;99.90;;;;;;6089264;23;19927;-85
2021/06/08 09:40:20;;;;;;;;;;;19.30;99.90;;;;;;6090943;23;19921;-86
2021/06/08 09:42:47;;;;;;;;;;;19.40;99.90;;;;;;6090367;23;19921;-86
2021/06/08 09:45:15;;;;;;;;;;;19.60;99.90;;;;;;6090387;23;20356;-85
2021/06/08 09:47:42;;;;;;;;;;;19.90;99.90;;;;;;6092404;23;19968;-84
2021/06/08 09:50:28;;;;;;;;;;;20.20;99.90;;;;;;6089485;23;20348;-85
2021/06/08 09:53:14;;;;;;;;;;;20.60;99.90;;;;;;6092037;23;19925;-86
2021/06/08 09:55:53;;;;;;;;;;;20.90;99.90;;;;;;6088967;23;19922;-86
2021/06/08 09:58:20;;;;;;;;;;;21.20;99.90;;;;;;6091429;23;19921;-86
2021/06/08 10:01:06;;;;;;;;;;;21.20;99.90;;;;;;6092021;23;20329;-86
2021/06/08 10:03:33;;;;;;;;;;;21.20;99.90;;;;;;6092041;23;19921;-85
2021/06/08 10:06:04;;;;;;;;;;;21.40;99.90;;;;;;6090625;23;19928;-85
2021/06/08 10:08:31;;;;;;;;;;;21.60;99.90;;;;;;6090221;23;19967;-87
2021/06/08 10:10:59;;;;;;;;;;;21.80;99.90;;;;;;6092319;23;19975;-85
2021/06/08 10:13:26;;;;;;;;;;;22.00;99.90;;;;;;6090031;23;19979;-85
2021/06/08 10:15:53;;;;;;;;;;;22.10;99.90;;;;;;6091982;23;19922;-86
2021/06/08 10:18:20;;;;;;;;;;;22.20;99.90;;;;;;6089988;23;19980;-87
2021/06/08 10:20:48;;;;;;;;;;;22.20;99.90;;;;;;6090306;23;19921;-86
2021/06/08 10:23:23;;;;;;;;;;;22.20;99.90;;;;;;6091574;23;19925;-86
2021/06/08 10:25:50;;;;;;;;;;;22.20;99.90;;;;;;6090169;23;20403;-86
2021/06/08 10:28:18;;;;;;;;;;;22.20;99.90;;;;;;6089072;23;20307;-86
2021/06/08 10:30:45;;;;;;;;;;;22.20;99.90;;;;;;6091327;23;19975;-87
2021/06/08 10:33:30;;;;;;;;;;;22.20;99.90;;;;;;6098067;23;19921;-86
2021/06/08 10:36:10;;;;;;;;;;;22.30;99.90;;;;;;6096712;23;20368;-87
2021/06/08 10:38:36;;;;;;;;;;;22.20;99.90;;;;;;6094973;23;19924;-87
2021/06/08 10:41:03;;;;;;;;;;;22.30;99.90;;;;;;6121161;23;19921;-85
2021/06/08 10:43:32;;;;;;;;;;;22.50;99.90;;;;;;6095130;23;19921;-85
2021/06/08 10:46:00;;;;;;;;;;;22.70;99.90;;;;;;6219952;23;19927;-86
2021/06/08 10:48:38;;;;;;;;;;;23.00;99.90;;;;;;6244284;23;19919;-86
2021/06/08 10:51:09;;;;;;;;;;;23.20;99.90;;;;;;6110173;23;19921;-86
2021/06/08 10:53:36;;;;;;;;;;;23.40;99.90;;;;;;6090251;23;19921;-87
2021/06/08 10:56:18;;;;;;;;;;;23.60;99.90;;;;;;6090566;23;19971;-87
2021/06/08 10:58:46;;;;;;;;;;;23.80;99.90;;;;;;6090041;23;20337;-86
2021/06/08 11:01:34;;;;;;;;;;;23.90;99.90;;;;;;6090009;23;19922;-85
2021/06/08 11:04:02;;;;;;;;;;;24.10;99.90;;;;;;6090616;23;19925;-86
2021/06/08 11:06:47;;;;;;;;;;;24.10;99.90;;;;;;6088258;23;20300;-87
2021/06/08 11:09:15;;;;;;;;;;;24.20;99.90;;;;;;6088515;23;20352;-87
2021/06/08 11:11:43;;;;;;;;;;;24.30;99.90;;;;;;6087711;23;19930;-87
2021/06/08 11:14:44;;;;;;;;;;;24.30;99.90;;;;;;6090149;23;19953;-89
2021/06/08 11:17:11;;;;;;;;;;;24.20;99.90;;;;;;6072187;23;19925;-87
2021/06/08 11:19:44;;;;;;;;;;;23.90;99.90;;;;;;6087461;23;19925;-86
2021/06/08 11:22:12;;;;;;;;;;;23.80;99.90;;;;;;6087193;23;19922;-88
2021/06/08 11:24:40;;;;;;;;;;;23.90;99.90;;;;;;6090061;23;19926;-86
2021/06/08 11:27:07;;;;;;;;;;;24.00;99.90;;;;;;6091277;23;20299;-87
2021/06/08 11:29:56;;;;;;;;;;;24.10;99.90;;;;;;6091342;23;19975;-87
2021/06/08 11:32:29;;;;;;;;;;;24.00;99.90;;;;;;6092302;23;19922;-87
2021/06/08 11:35:08;;;;;;;;;;;23.90;99.90;;;;;;6093099;23;19967;-89
2021/06/08 11:37:45;;;;;;;;;;;23.90;99.90;;;;;;6092660;23;19975;-87
2021/06/08 11:40:30;;;;;;;;;;;23.90;99.90;;;;;;6091085;23;19921;-87
2021/06/08 11:42:57;;;;;;;;;;;23.80;99.90;;;;;;6089104;23;20382;-87
2021/06/08 11:45:34;;;;;;;;;;;23.70;99.90;;;;;;6092040;23;19921;-86
2021/06/08 11:48:01;;;;;;;;;;;23.70;99.90;;;;;;6090356;23;19921;-86
2021/06/08 11:50:42;;;;;;;;;;;23.90;99.90;;;;;;6089225;23;19944;-87
2021/06/08 11:53:09;;;;;;;;;;;24.00;99.90;;;;;;6089936;23;19921;-87
2021/06/08 11:55:36;;;;;;;;;;;24.00;99.90;;;;;;6091377;23;19921;-86
2021/06/08 11:58:03;;;;;;;;;;;24.10;99.90;;;;;;6091232;23;19925;-86
2021/06/08 12:00:52;;;;;;;;;;;24.20;99.90;;;;;;6090939;23;20328;-86
2021/06/08 12:03:29;;;;;;;;;;;24.20;99.90;;;;;;6090876;23;19975;-87
2021/06/08 12:05:57;;;;;;;;;;;24.40;99.90;;;;;;6091263;23;19921;-86
2021/06/08 12:08:24;;;;;;;;;;;24.40;98.90;;;;;;6090434;23;19992;-86
2021/06/08 12:10:55;;;;;;;;;;;24.10;98.10;;;;;;6090681;23;19976;-86
2021/06/08 12:13:28;;;;;;;;;;;23.90;98.80;;;;;;6090601;23;19921;-87
2021/06/08 12:15:56;;;;;;;;;;;23.90;99.90;;;;;;6090717;23;19967;-86
2021/06/08 12:18:32;;;;;;;;;;;24.10;99.90;;;;;;6090376;23;20345;-87
2021/06/08 12:21:15;;;;;;;;;;;24.20;99.90;;;;;;6090709;23;19928;-86
2021/06/08 12:23:42;;;;;;;;;;;24.20;99.90;;;;;;6091080;23;19921;-86
2021/06/08 12:26:09;;;;;;;;;;;24.20;99.00;;;;;;6091998;23;19976;-87
2021/06/08 12:28:36;;;;;;;;;;;23.90;99.70;;;;;;6090645;23;19921;-86
2021/06/08 12:31:18;;;;;;;;;;;23.80;99.50;;;;;;6091653;23;19971;-86
2021/06/08 12:33:45;;;;;;;;;;;23.60;99.90;;;;;;6090835;23;19925;-86
2021/06/08 12:36:12;;;;;;;;;;;23.50;99.90;;;;;;6090252;23;20411;-85
2021/06/08 12:38:45;;;;;;;;;;;23.50;99.90;;;;;;6088857;23;19922;-86
2021/06/08 12:41:15;;;;;;;;;;;23.50;99.90;;;;;;6089055;23;19921;-86
2021/06/08 12:43:50;;;;;;;;;;;23.50;99.90;;;;;;6088243;23;19948;-86
2021/06/08 12:46:28;;;;;;;;;;;23.60;99.90;;;;;;6087283;23;19952;-87
2021/06/08 12:49:06;;;;;;;;;;;23.60;99.90;;;;;;6090083;23;20418;-86
2021/06/08 12:51:32;;;;;;;;;;;23.70;99.90;;;;;;6119491;23;20004;-88
2021/06/08 12:53:59;;;;;;;;;;;23.90;99.90;;;;;;6119481;23;19921;-86
2021/06/08 12:56:26;;;;;;;;;;;23.90;99.60;;;;;;6093635;23;19921;-87
2021/06/08 12:58:53;;;;;;;;;;;24.10;99.90;;;;;;6093693;23;19925;-87
2021/06/08 13:01:20;;;;;;;;;;;24.20;98.90;;;;;;6119433;23;19971;-87
2021/06/08 13:03:48;;;;;;;;;;;24.30;99.80;;;;;;6119669;23;19925;-88
2021/06/08 13:06:18;;;;;;;;;;;24.30;99.90;;;;;;6119486;23;19924;-88
2021/06/08 13:08:49;;;;;;;;;;;23.90;99.90;;;;;;6093640;23;20926;-87
2021/06/08 13:11:26;;;;;;;;;;;23.60;99.90;;;;;;6119012;23;19925;-86
2021/06/08 13:13:54;;;;;;;;;;;23.40;99.90;;;;;;6118838;23;19967;-86
2021/06/08 13:16:31;;;;;;;;;;;23.30;99.90;;;;;;6118881;23;19974;-87
2021/06/08 13:19:17;;;;;;;;;;;23.20;99.90;;;;;;6093104;23;19921;-87
2021/06/08 13:21:45;;;;;;;;;;;23.10;99.90;;;;;;6088246;23;20024;-86
2021/06/08 13:24:12;;;;;;;;;;;23.10;99.90;;;;;;6087987;23;19978;-87
2021/06/08 13:26:39;;;;;;;;;;;23.00;99.90;;;;;;6088120;23;19975;-87
2021/06/08 13:29:20;;;;;;;;;;;23.00;99.90;;;;;;6087449;23;19979;-86
2021/06/08 13:31:48;;;;;;;;;;;23.10;99.90;;;;;;6089328;23;20003;-86
2021/06/08 13:34:20;;;;;;;;;;;23.10;99.90;;;;;;6087780;23;20000;-86
2021/06/08 13:36:47;;;;;;;;;;;23.30;99.90;;;;;;6089252;23;20354;-86
2021/06/08 13:39:19;;;;;;;;;;;23.50;99.90;;;;;;6087487;23;19925;-87
2021/06/08 13:41:50;;;;;;;;;;;23.60;99.90;;;;;;6089961;23;19921;-87
2021/06/08 13:44:17;;;;;;;;;;;23.90;99.90;;;;;;6087544;23;19951;-87
2021/06/08 13:47:00;;;;;;;;;;;24.00;99.90;;;;;;6090037;23;19925;-87
2021/06/08 13:49:43;;;;;;;;;;;24.10;99.20;;;;;;6086307;23;20428;-87
2021/06/08 13:52:10;;;;;;;;;;;24.10;99.90;;;;;;6086569;23;19925;-86
2021/06/08 13:54:37;;;;;;;;;;;24.20;99.40;;;;;;6088035;23;19921;-87
2021/06/08 13:57:07;;;;;;;;;;;24.20;99.10;;;;;;6087647;23;20356;-84
2021/06/08 14:02:46;;;;;;;;;;;23.90;99.90;;;;;;6089544;23;19975;-88
2021/06/08 14:05:33;;;;;;;;;;;24.00;99.90;;;;;;6089254;23;19926;-86
2021/06/08 14:08:01;;;;;;;;;;;24.00;99.90;;;;;;6088299;23;19925;-87
2021/06/08 14:10:29;;;;;;;;;;;23.90;99.90;;;;;;6087443;23;19987;-86
2021/06/08 14:12:58;;;;;;;;;;;23.90;99.90;;;;;;6088024;23;19975;-89
2021/06/08 14:15:25;;;;;;;;;;;23.90;99.90;;;;;;6087189;23;20011;-86
2021/06/08 14:17:52;;;;;;;;;;;23.90;99.90;;;;;;6087258;23;19921;-86
2021/06/08 14:20:19;;;;;;;;;;;23.90;99.90;;;;;;6086558;23;19922;-89
2021/06/08 14:22:46;;;;;;;;;;;23.90;99.90;;;;;;6089095;23;19967;-86
2021/06/08 14:25:14;;;;;;;;;;;23.90;99.90;;;;;;6088598;23;19925;-87
2021/06/08 14:27:42;;;;;;;;;;;23.80;99.90;;;;;;6087680;23;19921;-87
2021/06/08 14:30:10;;;;;;;;;;;23.70;99.90;;;;;;6088892;23;19976;-87
2021/06/08 14:32:37;;;;;;;;;;;23.60;99.80;;;;;;6087628;23;19925;-88
2021/06/08 14:35:05;;;;;;;;;;;23.50;99.90;;;;;;6087715;23;19922;-86
2021/06/08 14:37:32;;;;;;;;;;;23.50;99.90;;;;;;6087657;23;19922;-87
2021/06/08 14:39:59;;;;;;;;;;;23.40;99.90;;;;;;6088059;23;20326;-87
2021/06/08 14:42:26;;;;;;;;;;;23.40;99.90;;;;;;6087000;23;19967;-87
2021/06/08 14:44:53;;;;;;;;;;;23.40;99.90;;;;;;6086895;23;20502;-90
2021/06/08 14:47:19;;;;;;;;;;;23.40;99.90;;;;;;6088253;23;19921;-88
2021/06/08 14:49:47;;;;;;;;;;;23.40;99.90;;;;;;6087474;23;20447;-86
2021/06/08 14:52:13;;;;;;;;;;;23.40;99.90;;;;;;6089917;23;19964;-86
2021/06/08 14:54:40;;;;;;;;;;;23.40;99.90;;;;;;6088877;23;20272;-88
2021/06/08 14:57:07;;;;;;;;;;;23.40;99.90;;;;;;6088736;23;19947;-88
2021/06/08 14:59:35;;;;;;;;;;;23.20;99.90;;;;;;6090545;23;19967;-85
2021/06/08 15:02:02;;;;;;;;;;;23.20;99.90;;;;;;6087954;23;19926;-86
2021/06/08 15:04:29;;;;;;;;;;;23.00;99.90;;;;;;6087980;23;19925;-86
2021/06/08 15:06:57;;;;;;;;;;;22.90;99.90;;;;;;6088299;23;20264;-87
2021/06/08 15:09:24;;;;;;;;;;;22.70;99.90;;;;;;6088138;23;19925;-86
2021/06/08 15:11:52;;;;;;;;;;;22.60;99.90;;;;;;6090361;23;20016;-85
2021/06/08 15:14:19;;;;;;;;;;;22.60;99.90;;;;;;6087718;23;20348;-87
2021/06/08 15:16:46;;;;;;;;;;;22.70;99.90;;;;;;6090490;23;20303;-86
2021/06/08 15:19:14;;;;;;;;;;;22.70;99.90;;;;;;6089783;23;20045;-86
2021/06/08 15:21:42;;;;;;;;;;;22.70;99.90;;;;;;6088681;23;19921;-86
2021/06/08 15:24:09;;;;;;;;;;;22.70;99.90;;;;;;6088229;23;19959;-87
2021/06/08 15:26:36;;;;;;;;;;;22.80;99.90;;;;;;6088804;23;19929;-86
2021/06/08 15:29:05;;;;;;;;;;;22.80;99.90;;;;;;6089899;23;19926;-85
2021/06/08 15:31:32;;;;;;;;;;;22.80;99.90;;;;;;6088215;23;20329;-86
2021/06/08 15:34:00;;;;;;;;;;;22.70;99.90;;;;;;6088814;23;19922;-85
2021/06/08 15:36:27;;;;;;;;;;;22.70;99.90;;;;;;6087849;23;19922;-87
2021/06/08 15:38:54;;;;;;;;;;;22.70;99.90;;;;;;6088781;23;19979;-87
2021/06/08 15:41:20;;;;;;;;;;;22.60;99.90;;;;;;6089577;23;19983;-84
2021/06/08 15:43:49;;;;;;;;;;;22.60;99.90;;;;;;6090346;23;20253;-86
2021/06/08 15:46:16;;;;;;;;;;;22.60;99.90;;;;;;6089779;23;19921;-87
2021/06/08 15:48:43;;;;;;;;;;;22.60;99.90;;;;;;6090031;23;20301;-86
2021/06/08 15:51:10;;;;;;;;;;;22.70;99.60;;;;;;6089895;23;19925;-85
2021/06/08 15:53:37;;;;;;;;;;;22.70;99.50;;;;;;6090229;23;19921;-86
2021/06/08 15:56:04;;;;;;;;;;;22.70;98.70;;;;;;6089922;23;19921;-88
2021/06/08 15:58:30;;;;;;;;;;;22.60;98.40;;;;;;6088525;23;20292;-85
2021/06/08 16:01:13;;;;;;;;;;;22.50;98.50;;;;;;6087240;23;19925;-86
2021/06/08 16:03:41;;;;;;;;;;;22.60;97.70;;;;;;6088197;23;19932;-85
2021/06/08 16:06:07;;;;;;;;;;;22.50;97.20;;;;;;6086603;23;19979;-85
2021/06/08 16:08:34;;;;;;;;;;;22.60;97.40;;;;;;6087601;23;20016;-86
2021/06/08 16:11:01;;;;;;;;;;;22.70;97.50;;;;;;6090028;23;20352;-86
2021/06/08 16:13:27;;;;;;;;;;;22.70;96.70;;;;;;6088129;23;20526;-85
2021/06/08 16:15:54;;;;;;;;;;;22.80;97.00;;;;;;6090301;23;20345;-86
2021/06/08 16:18:21;;;;;;;;;;;22.80;96.50;;;;;;6089671;23;19925;-86
2021/06/08 16:20:48;;;;;;;;;;;22.90;95.80;;;;;;6088278;23;19972;-86
2021/06/08 16:23:15;;;;;;;;;;;22.90;95.70;;;;;;6087014;23;20314;-87
2021/06/08 16:25:42;;;;;;;;;;;22.90;96.10;;;;;;6088577;23;19925;-86
2021/06/08 16:28:08;;;;;;;;;;;22.80;95.60;;;;;;6088525;23;19975;-86
2021/06/08 16:30:35;;;;;;;;;;;22.70;95.90;;;;;;6089250;23;19926;-87
2021/06/08 16:33:02;;;;;;;;;;;22.80;96.30;;;;;;6087641;23;19927;-86
2021/06/08 16:35:29;;;;;;;;;;;22.90;95.60;;;;;;6089478;23;19921;-88
2021/06/08 16:37:55;;;;;;;;;;;22.90;95.50;;;;;;6090354;23;19921;-88
2021/06/08 16:40:22;;;;;;;;;;;23.00;95.20;;;;;;6089778;23;19921;-85
2021/06/08 16:42:49;;;;;;;;;;;23.00;95.30;;;;;;6091826;23;19921;-85
2021/06/08 16:45:17;;;;;;;;;;;23.00;95.60;;;;;;6089050;23;19922;-87
2021/06/08 16:47:44;;;;;;;;;;;23.00;95.80;;;;;;6091312;23;20391;-87
2021/06/08 16:50:12;;;;;;;;;;;23.00;95.60;;;;;;6079989;23;19929;-86
2021/06/08 16:55:24;;;;;;;;;;;22.90;96.20;;;;;;6092012;23;19929;-87
2021/06/08 16:57:51;;;;;;;;;;;22.80;96.00;;;;;;6091064;23;20333;-86
2021/06/08 17:00:18;;;;;;;;;;;22.60;96.10;;;;;;6090346;23;19945;-87
2021/06/08 17:02:45;;;;;;;;;;;22.50;96.50;;;;;;6091057;23;19921;-87
2021/06/08 17:05:12;;;;;;;;;;;22.50;96.40;;;;;;6090163;23;19983;-86
2021/06/08 17:07:39;;;;;;;;;;;22.60;97.30;;;;;;6090473;23;19991;-87
2021/06/08 17:10:09;;;;;;;;;;;22.70;97.00;;;;;;6090700;23;19921;-87
2021/06/08 17:12:35;;;;;;;;;;;22.80;96.70;;;;;;6090850;23;19983;-87
2021/06/08 17:15:03;;;;;;;;;;;22.70;97.10;;;;;;6089015;23;20000;-89
2021/06/08 17:17:29;;;;;;;;;;;22.60;97.00;;;;;;6089116;23;19921;-86
2021/06/08 17:19:56;;;;;;;;;;;22.70;96.80;;;;;;6090182;23;19922;-87
2021/06/08 17:22:23;;;;;;;;;;;22.60;96.90;;;;;;6085920;23;19929;-86
2021/06/08 17:24:50;;;;;;;;;;;22.70;97.20;;;;;;6088349;23;19975;-88
2021/06/08 17:27:16;;;;;;;;;;;22.80;96.70;;;;;;6087462;23;19925;-86
2021/06/08 17:29:43;;;;;;;;;;;22.80;96.50;;;;;;6087488;23;19926;-85
2021/06/08 17:32:10;;;;;;;;;;;22.80;96.40;;;;;;6088123;23;20004;-90
2021/06/08 17:34:37;;;;;;;;;;;22.80;96.10;;;;;;6087731;23;19921;-86
2021/06/08 17:37:05;;;;;;;;;;;22.90;96.10;;;;;;6085799;23;19948;-85
2021/06/08 17:39:33;;;;;;;;;;;23.10;96.10;;;;;;6088277;23;19922;-88
2021/06/08 17:42:01;;;;;;;;;;;23.30;95.70;;;;;;6086098;23;20004;-86
2021/06/08 17:44:28;;;;;;;;;;;23.50;95.10;;;;;;6086505;23;20308;-86
2021/06/08 17:46:55;;;;;;;;;;;23.60;95.00;;;;;;6086828;23;19925;-89
2021/06/08 17:49:22;;;;;;;;;;;23.70;94.90;;;;;;6085825;23;19970;-85
2021/06/08 17:51:48;;;;;;;;;;;23.90;94.60;;;;;;6087731;23;19974;-85
2021/06/08 17:54:17;;;;;;;;;;;24.20;94.60;;;;;;6084971;23;19921;-87
2021/06/08 17:56:44;;;;;;;;;;;24.30;94.10;;;;;;6085888;23;19925;-85
2021/06/08 17:59:13;;;;;;;;;;;24.60;93.50;;;;;;6084165;23;19975;-86
2021/06/08 18:01:40;;;;;;;;;;;24.90;93.40;;;;;;6087291;23;19925;-87
2021/06/08 18:04:07;;;;;;;;;;;25.20;93.00;;;;;;6087475;23;19971;-86
2021/06/08 18:06:34;;;;;;;;;;;25.50;92.60;;;;;;6088879;23;19948;-86
2021/06/08 18:09:01;;;;;;;;;;;25.80;92.10;;;;;;6086695;23;20300;-87
2021/06/08 18:11:28;;;;;;;;;;;26.30;91.50;;;;;;6087241;23;19925;-85
2021/06/08 18:14:01;;;;;;;;;;;26.50;91.10;;;;;;6086504;23;19949;-87
2021/06/08 18:16:39;;;;;;;;;;;26.90;90.70;;;;;;6087271;23;19922;-86
2021/06/08 18:21:52;;;;;;;;;;;27.50;87.30;;;;;;6089019;23;19921;-85
2021/06/08 18:24:19;;;;;;;;;;;27.30;86.80;;;;;;6086986;23;19925;-85
2021/06/08 18:26:46;;;;;;;;;;;27.00;86.70;;;;;;6087826;23;19921;-89
2021/06/08 18:29:13;;;;;;;;;;;26.50;87.30;;;;;;6083786;23;20292;-87
2021/06/08 18:31:40;;;;;;;;;;;25.80;87.70;;;;;;6087269;23;19976;-86
2021/06/08 18:34:08;;;;;;;;;;;25.20;87.70;;;;;;6086793;23;20001;-89
2021/06/08 18:36:35;;;;;;;;;;;24.50;88.70;;;;;;6089229;23;19921;-87
2021/06/08 18:39:02;;;;;;;;;;;23.90;90.10;;;;;;6086989;23;19921;-85
2021/06/08 18:41:29;;;;;;;;;;;23.40;90.70;;;;;;6088086;23;19925;-85
2021/06/08 18:43:56;;;;;;;;;;;23.00;91.20;;;;;;6087535;23;19921;-86
2021/06/08 18:46:24;;;;;;;;;;;22.60;91.70;;;;;;6085868;23;19925;-87
2021/06/08 18:48:51;;;;;;;;;;;22.20;92.30;;;;;;6088650;23;19925;-85
2021/06/08 18:51:18;;;;;;;;;;;21.90;92.70;;;;;;6087100;23;19944;-86
2021/06/08 18:53:45;;;;;;;;;;;21.50;93.10;;;;;;6088255;23;19949;-85
2021/06/08 18:56:14;;;;;;;;;;;21.10;93.30;;;;;;6087150;23;19921;-87
2021/06/08 18:58:42;;;;;;;;;;;20.90;93.70;;;;;;6086073;23;19968;-88
2021/06/08 19:01:09;;;;;;;;;;;20.60;94.00;;;;;;6086469;23;19971;-88
2021/06/08 19:03:36;;;;;;;;;;;20.30;94.60;;;;;;6086719;23;19925;-87
2021/06/08 19:06:03;;;;;;;;;;;20.00;95.10;;;;;;6087468;23;19955;-84
2021/06/08 19:08:30;;;;;;;;;;;19.70;95.60;;;;;;6085895;23;19964;-87
2021/06/08 19:10:57;;;;;;;;;;;19.50;96.10;;;;;;6087784;23;19925;-86
2021/06/08 19:13:24;;;;;;;;;;;19.40;96.60;;;;;;6085496;23;20033;-86
2021/06/08 19:15:51;;;;;;;;;;;19.30;97.10;;;;;;6088811;23;19995;-86
2021/06/08 19:18:18;;;;;;;;;;;19.20;97.40;;;;;;6088441;23;19988;-86
2021/06/08 19:20:45;;;;;;;;;;;19.10;97.90;;;;;;6087553;23;19976;-86
2021/06/08 19:23:12;;;;;;;;;;;19.10;98.20;;;;;;6088089;23;20403;-86
2021/06/08 19:25:39;;;;;;;;;;;19.30;98.10;;;;;;6087424;23;19979;-86
2021/06/08 19:28:06;;;;;;;;;;;19.40;98.10;;;;;;6086806;23;19921;-86
2021/06/08 19:30:33;;;;;;;;;;;19.30;98.40;;;;;;6087146;23;19977;-86
2021/06/08 19:33:00;;;;;;;;;;;19.20;98.80;;;;;;6087015;23;19922;-86
2021/06/08 19:35:28;;;;;;;;;;;19.10;99.20;;;;;;6087084;23;20030;-86
2021/06/08 19:37:55;;;;;;;;;;;18.90;99.70;;;;;;6089309;23;19922;-85
2021/06/08 19:40:21;;;;;;;;;;;18.70;99.90;;;;;;6089539;23;19922;-86
2021/06/08 19:42:48;;;;;;;;;;;18.60;99.90;;;;;;6090176;23;19921;-85
2021/06/08 19:45:15;;;;;;;;;;;18.50;99.90;;;;;;6089555;23;19925;-84
2021/06/08 19:47:43;;;;;;;;;;;18.40;99.90;;;;;;6088264;23;19926;-85
2021/06/08 19:50:11;;;;;;;;;;;18.30;99.90;;;;;;6087995;23;19996;-85
2021/06/08 19:52:41;;;;;;;;;;;18.10;99.90;;;;;;6089633;23;20001;-84
2021/06/08 19:55:08;;;;;;;;;;;18.00;99.90;;;;;;6086342;23;20012;-85
2021/06/08 19:57:35;;;;;;;;;;;17.90;99.90;;;;;;6087625;23;19921;-85
2021/06/08 20:00:06;;;;;;;;;;;17.80;99.90;;;;;;6087655;23;19925;-86
2021/06/08 20:02:34;;;;;;;;;;;17.70;99.90;;;;;;6117902;23;20340;-84
2021/06/08 20:05:01;;;;;;;;;;;17.60;99.90;;;;;;6085915;23;20233;-84
2021/06/08 20:07:27;;;;;;;;;;;17.50;99.90;;;;;;6087741;23;19921;-84
2021/06/08 20:09:56;;;;;;;;;;;17.40;99.90;;;;;;6114807;23;19921;-85
2021/06/08 20:12:23;;;;;;;;;;;17.40;99.90;;;;;;6092584;23;20349;-85
2021/06/08 20:14:50;;;;;;;;;;;17.30;99.90;;;;;;6093291;23;19921;-86
2021/06/08 20:17:17;;;;;;;;;;;17.30;99.90;;;;;;6092415;23;19933;-86
2021/06/08 20:19:44;;;;;;;;;;;17.20;99.90;;;;;;6093176;23;19925;-87
2021/06/08 20:22:11;;;;;;;;;;;17.20;99.90;;;;;;6090464;23;19971;-90
2021/06/08 20:24:38;;;;;;;;;;;17.10;99.90;;;;;;6092216;23;19921;-89
2021/06/08 20:27:08;;;;;;;;;;;17.00;99.90;;;;;;6092974;23;19947;-85
2021/06/08 20:29:35;;;;;;;;;;;17.00;99.90;;;;;;6093367;23;19974;-86
2021/06/08 20:32:02;;;;;;;;;;;16.90;99.90;;;;;;6092067;23;19921;-87
2021/06/08 20:34:29;;;;;;;;;;;16.80;99.90;;;;;;6092418;23;19984;-86
2021/06/08 20:36:57;;;;;;;;;;;16.70;99.90;;;;;;6120043;23;19983;-86
2021/06/08 20:39:24;;;;;;;;;;;16.70;99.90;;;;;;6118894;23;19929;-86
2021/06/08 20:41:52;;;;;;;;;;;16.60;99.90;;;;;;6094930;23;20314;-84
2021/06/08 20:44:19;;;;;;;;;;;16.50;99.90;;;;;;6093296;23;19987;-86
2021/06/08 20:46:47;;;;;;;;;;;16.40;99.90;;;;;;6118719;23;19921;-83
2021/06/08 20:49:14;;;;;;;;;;;16.40;99.90;;;;;;6090483;23;20192;-84
2021/06/08 20:51:40;;;;;;;;;;;16.30;99.90;;;;;;6092298;23;19925;-87
2021/06/08 20:54:08;;;;;;;;;;;16.30;99.90;;;;;;6087996;23;19925;-86
2021/06/08 20:56:35;;;;;;;;;;;16.30;99.90;;;;;;6089752;23;19925;-86
2021/06/08 20:59:02;;;;;;;;;;;16.20;99.90;;;;;;6090652;23;19921;-85
2021/06/08 21:01:29;;;;;;;;;;;16.20;99.90;;;;;;6091095;23;19924;-85
2021/06/08 21:03:56;;;;;;;;;;;16.10;99.90;;;;;;6087506;23;19921;-84
2021/06/08 21:06:23;;;;;;;;;;;16.10;99.90;;;;;;6116998;23;19990;-85
2021/06/08 21:08:50;;;;;;;;;;;16.10;99.90;;;;;;6091284;23;20221;-85
2021/06/08 21:11:17;;;;;;;;;;;16.10;99.90;;;;;;6092281;23;20505;-85
2021/06/08 21:13:44;;;;;;;;;;;16.00;99.90;;;;;;6092230;23;19924;-86
2021/06/08 21:16:10;;;;;;;;;;;16.00;99.90;;;;;;6092472;23;19921;-84
2021/06/08 21:18:37;;;;;;;;;;;15.90;99.90;;;;;;6117217;23;20000;-85
2021/06/08 21:21:04;;;;;;;;;;;15.90;99.90;;;;;;6116710;23;19986;-83
2021/06/08 21:23:31;;;;;;;;;;;15.80;99.90;;;;;;6091438;23;20340;-83
2021/06/08 21:25:58;;;;;;;;;;;15.80;99.90;;;;;;6088232;23;19986;-84
2021/06/08 21:28:26;;;;;;;;;;;15.80;99.90;;;;;;6089330;23;20314;-85
2021/06/08 21:30:53;;;;;;;;;;;15.70;99.90;;;;;;6089679;23;19920;-85
2021/06/08 21:33:20;;;;;;;;;;;15.70;99.90;;;;;;6084255;23;19925;-85
2021/06/08 21:35:47;;;;;;;;;;;15.70;99.90;;;;;;6085145;23;19979;-84
2021/06/08 21:38:13;;;;;;;;;;;15.70;99.90;;;;;;6084018;23;20258;-85
2021/06/08 21:40:40;;;;;;;;;;;15.60;99.90;;;;;;6087381;23;20249;-85
2021/06/08 21:43:07;;;;;;;;;;;15.70;99.90;;;;;;6086726;23;20012;-85
2021/06/08 21:45:34;;;;;;;;;;;15.60;99.90;;;;;;6087073;23;19925;-85
2021/06/08 21:48:00;;;;;;;;;;;15.60;99.90;;;;;;6087209;23;19933;-84
2021/06/08 21:50:27;;;;;;;;;;;15.50;99.90;;;;;;6087584;23;19921;-86
2021/06/08 21:53:02;;;;;;;;;;;15.60;99.90;;;;;;6089371;23;19921;-85
2021/06/08 21:55:29;;;;;;;;;;;15.50;99.90;;;;;;6091194;23;19979;-85
2021/06/08 21:57:56;;;;;;;;;;;15.50;99.90;;;;;;6088915;23;19925;-84
2021/06/08 22:00:24;;;;;;;;;;;15.50;99.90;;;;;;6090693;23;19967;-84
2021/06/08 22:02:51;;;;;;;;;;;15.50;99.90;;;;;;6090346;23;19990;-85
2021/06/08 22:05:19;;;;;;;;;;;15.50;99.90;;;;;;6091469;23;19991;-84
2021/06/08 22:07:46;;;;;;;;;;;15.40;99.90;;;;;;6093242;23;19921;-85